sensor_id;sensor_type;location;lat;lon;timestamp;P1;durP1;ratioP1;P2;durP2;ratioP2
74344;SDS011;62776;50.518;6.732;2023-11-19T00:02:33;1.35;;;0.40;;
74344;SDS011;62776;50.518;6.732;2023-11-19T00:05:19;0.50;;;0.50;;
74344;SDS011;62776;50.518;6.732;2023-11-19T00:08:06;0.30;;;0.30;;
74344;SDS011;62776;50.518;6.732;2023-11-19T00:10:53;0.40;;;0.40;;
74344;SDS011;62776;50.518;6.732;2023-11-19T00:13:42;0.40;;;0.40;;
74344;SDS011;62776;50.518;6.732;2023-11-19T00:16:28;0.40;;;0.40;;
74344;SDS011;62776;50.518;6.732;2023-11-19T00:19:18;0.30;;;0.30;;
74344;SDS011;62776;50.518;6.732;2023-11-19T00:22:05;0.40;;;0.40;;
74344;SDS011;62776;50.518;6.732;2023-11-19T00:24:51;0.30;;;0.30;;
74344;SDS011;62776;50.518;6.732;2023-11-19T00:27:45;0.40;;;0.40;;
74344;SDS011;62776;50.518;6.732;2023-11-19T00:30:32;0.40;;;0.40;;
74344;SDS011;62776;50.518;6.732;2023-11-19T00:33:18;0.70;;;0.70;;
74344;SDS011;62776;50.518;6.732;2023-11-19T00:36:07;0.50;;;0.50;;
74344;SDS011;62776;50.518;6.732;2023-11-19T00:38:57;0.40;;;0.40;;
74344;SDS011;62776;50.518;6.732;2023-11-19T00:41:46;0.40;;;0.40;;
74344;SDS011;62776;50.518;6.732;2023-11-19T00:44:33;0.50;;;0.50;;
74344;SDS011;62776;50.518;6.732;2023-11-19T00:47:23;0.38;;;0.38;;
74344;SDS011;62776;50.518;6.732;2023-11-19T00:50:09;0.40;;;0.40;;
74344;SDS011;62776;50.518;6.732;2023-11-19T00:52:56;0.38;;;0.38;;
74344;SDS011;62776;50.518;6.732;2023-11-19T00:55:42;0.30;;;0.30;;
74344;SDS011;62776;50.518;6.732;2023-11-19T00:58:29;0.40;;;0.40;;
74344;SDS011;62776;50.518;6.732;2023-11-19T01:01:18;0.40;;;0.40;;
74344;SDS011;62776;50.518;6.732;2023-11-19T01:04:05;0.50;;;0.50;;
74344;SDS011;62776;50.518;6.732;2023-11-19T01:06:54;0.65;;;0.65;;
74344;SDS011;62776;50.518;6.732;2023-11-19T01:09:44;0.60;;;0.60;;
74344;SDS011;62776;50.518;6.732;2023-11-19T01:12:31;0.43;;;0.43;;
74344;SDS011;62776;50.518;6.732;2023-11-19T01:15:17;0.75;;;0.57;;
74344;SDS011;62776;50.518;6.732;2023-11-19T01:18:04;0.40;;;0.40;;
74344;SDS011;62776;50.518;6.732;2023-11-19T01:20:50;0.50;;;0.50;;
74344;SDS011;62776;50.518;6.732;2023-11-19T01:23:37;0.32;;;0.32;;
74344;SDS011;62776;50.518;6.732;2023-11-19T01:26:29;0.40;;;0.40;;
74344;SDS011;62776;50.518;6.732;2023-11-19T01:29:17;0.40;;;0.40;;
74344;SDS011;62776;50.518;6.732;2023-11-19T01:32:05;0.50;;;0.50;;
74344;SDS011;62776;50.518;6.732;2023-11-19T01:34:51;0.50;;;0.50;;
74344;SDS011;62776;50.518;6.732;2023-11-19T01:37:38;0.50;;;0.50;;
74344;SDS011;62776;50.518;6.732;2023-11-19T01:40:25;0.40;;;0.40;;
74344;SDS011;62776;50.518;6.732;2023-11-19T01:43:12;1.00;;;0.43;;
74344;SDS011;62776;50.518;6.732;2023-11-19T01:46:15;0.50;;;0.50;;
74344;SDS011;62776;50.518;6.732;2023-11-19T01:49:02;0.70;;;0.70;;
74344;SDS011;62776;50.518;6.732;2023-11-19T01:51:50;0.30;;;0.30;;
74344;SDS011;62776;50.518;6.732;2023-11-19T01:54:37;0.40;;;0.40;;
74344;SDS011;62776;50.518;6.732;2023-11-19T01:57:23;0.43;;;0.43;;
74344;SDS011;62776;50.518;6.732;2023-11-19T02:00:10;0.40;;;0.40;;
74344;SDS011;62776;50.518;6.732;2023-11-19T02:02:57;0.77;;;0.45;;
74344;SDS011;62776;50.518;6.732;2023-11-19T02:05:27;0.82;;;0.70;;
74344;SDS011;62776;50.518;6.732;2023-11-19T02:08:17;0.50;;;0.50;;
74344;SDS011;62776;50.518;6.732;2023-11-19T02:11:05;1.15;;;1.02;;
74344;SDS011;62776;50.518;6.732;2023-11-19T02:13:52;2.85;;;0.70;;
74344;SDS011;62776;50.518;6.732;2023-11-19T02:16:39;2.40;;;1.00;;
74344;SDS011;62776;50.518;6.732;2023-11-19T02:19:25;1.80;;;0.90;;
74344;SDS011;62776;50.518;6.732;2023-11-19T02:22:12;2.03;;;1.02;;
74344;SDS011;62776;50.518;6.732;2023-11-19T02:24:59;2.25;;;0.85;;
74344;SDS011;62776;50.518;6.732;2023-11-19T02:27:53;1.15;;;0.93;;
74344;SDS011;62776;50.518;6.732;2023-11-19T02:30:44;1.75;;;1.02;;
74344;SDS011;62776;50.518;6.732;2023-11-19T02:33:39;1.23;;;0.75;;
74344;SDS011;62776;50.518;6.732;2023-11-19T02:36:26;0.60;;;0.60;;
74344;SDS011;62776;50.518;6.732;2023-11-19T02:39:12;0.95;;;0.60;;
74344;SDS011;62776;50.518;6.732;2023-11-19T02:41:58;1.02;;;0.50;;
74344;SDS011;62776;50.518;6.732;2023-11-19T02:44:45;0.73;;;0.60;;
74344;SDS011;62776;50.518;6.732;2023-11-19T02:47:31;1.85;;;1.70;;
74344;SDS011;62776;50.518;6.732;2023-11-19T02:50:19;0.68;;;0.68;;
74344;SDS011;62776;50.518;6.732;2023-11-19T02:53:16;1.92;;;0.70;;
74344;SDS011;62776;50.518;6.732;2023-11-19T02:56:07;1.40;;;0.85;;
74344;SDS011;62776;50.518;6.732;2023-11-19T02:59:04;2.22;;;0.95;;
74344;SDS011;62776;50.518;6.732;2023-11-19T03:01:59;3.33;;;0.82;;
74344;SDS011;62776;50.518;6.732;2023-11-19T03:04:46;2.17;;;0.95;;
74344;SDS011;62776;50.518;6.732;2023-11-19T03:07:36;1.83;;;1.05;;
74344;SDS011;62776;50.518;6.732;2023-11-19T03:10:22;1.35;;;0.60;;
74344;SDS011;62776;50.518;6.732;2023-11-19T03:13:10;0.77;;;0.70;;
74344;SDS011;62776;50.518;6.732;2023-11-19T03:15:59;2.88;;;1.20;;
74344;SDS011;62776;50.518;6.732;2023-11-19T03:18:45;1.80;;;0.90;;
74344;SDS011;62776;50.518;6.732;2023-11-19T03:21:31;2.05;;;1.05;;
74344;SDS011;62776;50.518;6.732;2023-11-19T03:24:18;2.28;;;1.10;;
74344;SDS011;62776;50.518;6.732;2023-11-19T03:27:07;3.95;;;1.00;;
74344;SDS011;62776;50.518;6.732;2023-11-19T03:29:53;1.08;;;0.90;;
74344;SDS011;62776;50.518;6.732;2023-11-19T03:32:40;1.55;;;1.08;;
74344;SDS011;62776;50.518;6.732;2023-11-19T03:35:26;2.38;;;1.27;;
74344;SDS011;62776;50.518;6.732;2023-11-19T03:38:13;2.38;;;1.33;;
74344;SDS011;62776;50.518;6.732;2023-11-19T03:41:01;1.85;;;1.30;;
74344;SDS011;62776;50.518;6.732;2023-11-19T03:43:55;1.17;;;0.90;;
74344;SDS011;62776;50.518;6.732;2023-11-19T03:46:42;2.22;;;1.13;;
74344;SDS011;62776;50.518;6.732;2023-11-19T03:49:28;2.03;;;0.85;;
74344;SDS011;62776;50.518;6.732;2023-11-19T03:52:15;2.17;;;1.33;;
74344;SDS011;62776;50.518;6.732;2023-11-19T03:55:02;3.30;;;1.63;;
74344;SDS011;62776;50.518;6.732;2023-11-19T03:57:50;1.25;;;0.70;;
74344;SDS011;62776;50.518;6.732;2023-11-19T04:00:37;1.05;;;0.93;;
74344;SDS011;62776;50.518;6.732;2023-11-19T04:03:23;2.25;;;0.95;;
74344;SDS011;62776;50.518;6.732;2023-11-19T04:06:10;1.90;;;1.25;;
74344;SDS011;62776;50.518;6.732;2023-11-19T04:08:56;1.05;;;0.80;;
74344;SDS011;62776;50.518;6.732;2023-11-19T04:11:43;2.70;;;1.33;;
74344;SDS011;62776;50.518;6.732;2023-11-19T04:14:32;1.58;;;1.20;;
74344;SDS011;62776;50.518;6.732;2023-11-19T04:17:18;1.45;;;1.17;;
74344;SDS011;62776;50.518;6.732;2023-11-19T04:20:07;1.88;;;0.93;;
74344;SDS011;62776;50.518;6.732;2023-11-19T04:22:58;1.85;;;0.93;;
74344;SDS011;62776;50.518;6.732;2023-11-19T04:25:46;1.60;;;1.13;;
74344;SDS011;62776;50.518;6.732;2023-11-19T04:28:32;2.45;;;1.13;;
74344;SDS011;62776;50.518;6.732;2023-11-19T04:31:18;1.98;;;1.30;;
74344;SDS011;62776;50.518;6.732;2023-11-19T04:34:05;1.63;;;0.93;;
74344;SDS011;62776;50.518;6.732;2023-11-19T04:36:52;2.60;;;1.23;;
74344;SDS011;62776;50.518;6.732;2023-11-19T04:39:39;3.20;;;1.30;;
74344;SDS011;62776;50.518;6.732;2023-11-19T04:42:25;1.95;;;1.52;;
74344;SDS011;62776;50.518;6.732;2023-11-19T04:45:13;2.47;;;1.42;;
74344;SDS011;62776;50.518;6.732;2023-11-19T04:48:03;3.60;;;1.52;;
74344;SDS011;62776;50.518;6.732;2023-11-19T04:50:49;4.40;;;1.52;;
74344;SDS011;62776;50.518;6.732;2023-11-19T04:53:37;1.60;;;1.10;;
74344;SDS011;62776;50.518;6.732;2023-11-19T04:56:23;2.33;;;1.00;;
74344;SDS011;62776;50.518;6.732;2023-11-19T04:59:12;1.88;;;0.80;;
74344;SDS011;62776;50.518;6.732;2023-11-19T05:01:59;2.13;;;1.10;;
74344;SDS011;62776;50.518;6.732;2023-11-19T05:04:45;6.65;;;2.47;;
74344;SDS011;62776;50.518;6.732;2023-11-19T05:07:35;2.15;;;0.95;;
74344;SDS011;62776;50.518;6.732;2023-11-19T05:10:23;2.72;;;1.15;;
74344;SDS011;62776;50.518;6.732;2023-11-19T05:13:11;2.35;;;1.40;;
74344;SDS011;62776;50.518;6.732;2023-11-19T05:15:57;3.78;;;1.70;;
74344;SDS011;62776;50.518;6.732;2023-11-19T05:18:44;5.88;;;1.90;;
74344;SDS011;62776;50.518;6.732;2023-11-19T05:21:30;2.35;;;1.55;;
74344;SDS011;62776;50.518;6.732;2023-11-19T05:24:16;2.97;;;1.00;;
74344;SDS011;62776;50.518;6.732;2023-11-19T05:27:03;5.55;;;1.75;;
74344;SDS011;62776;50.518;6.732;2023-11-19T05:29:56;2.25;;;1.50;;
74344;SDS011;62776;50.518;6.732;2023-11-19T05:35:29;2.50;;;1.88;;
74344;SDS011;62776;50.518;6.732;2023-11-19T05:38:15;2.80;;;1.20;;
74344;SDS011;62776;50.518;6.732;2023-11-19T05:41:02;2.40;;;1.48;;
74344;SDS011;62776;50.518;6.732;2023-11-19T05:43:49;4.47;;;1.75;;
74344;SDS011;62776;50.518;6.732;2023-11-19T05:46:36;4.72;;;1.52;;
74344;SDS011;62776;50.518;6.732;2023-11-19T05:49:27;3.00;;;1.25;;
74344;SDS011;62776;50.518;6.732;2023-11-19T05:52:17;1.77;;;1.20;;
74344;SDS011;62776;50.518;6.732;2023-11-19T05:55:04;2.97;;;1.77;;
74344;SDS011;62776;50.518;6.732;2023-11-19T05:57:54;2.25;;;1.45;;
74344;SDS011;62776;50.518;6.732;2023-11-19T06:00:42;2.20;;;1.10;;
74344;SDS011;62776;50.518;6.732;2023-11-19T06:03:28;2.95;;;1.63;;
74344;SDS011;62776;50.518;6.732;2023-11-19T06:06:15;3.83;;;1.42;;
74344;SDS011;62776;50.518;6.732;2023-11-19T06:09:02;3.35;;;2.03;;
74344;SDS011;62776;50.518;6.732;2023-11-19T06:11:52;2.92;;;1.58;;
74344;SDS011;62776;50.518;6.732;2023-11-19T06:14:42;9.13;;;2.65;;
74344;SDS011;62776;50.518;6.732;2023-11-19T06:17:28;2.45;;;1.33;;
74344;SDS011;62776;50.518;6.732;2023-11-19T06:20:14;2.83;;;1.45;;
74344;SDS011;62776;50.518;6.732;2023-11-19T06:23:02;5.18;;;2.10;;
74344;SDS011;62776;50.518;6.732;2023-11-19T06:25:48;2.90;;;2.33;;
74344;SDS011;62776;50.518;6.732;2023-11-19T06:28:36;4.13;;;1.63;;
74344;SDS011;62776;50.518;6.732;2023-11-19T06:31:22;3.25;;;1.42;;
74344;SDS011;62776;50.518;6.732;2023-11-19T06:34:09;2.42;;;1.90;;
74344;SDS011;62776;50.518;6.732;2023-11-19T06:37:08;2.13;;;1.00;;
74344;SDS011;62776;50.518;6.732;2023-11-19T06:39:55;3.03;;;1.20;;
74344;SDS011;62776;50.518;6.732;2023-11-19T06:42:41;4.65;;;1.35;;
74344;SDS011;62776;50.518;6.732;2023-11-19T06:45:28;2.83;;;1.63;;
74344;SDS011;62776;50.518;6.732;2023-11-19T06:48:14;2.30;;;1.55;;
74344;SDS011;62776;50.518;6.732;2023-11-19T06:51:04;2.08;;;1.85;;
74344;SDS011;62776;50.518;6.732;2023-11-19T06:53:51;4.80;;;2.35;;
74344;SDS011;62776;50.518;6.732;2023-11-19T06:56:41;4.60;;;1.90;;
74344;SDS011;62776;50.518;6.732;2023-11-19T06:59:28;6.40;;;1.98;;
74344;SDS011;62776;50.518;6.732;2023-11-19T07:02:17;4.10;;;1.67;;
74344;SDS011;62776;50.518;6.732;2023-11-19T07:05:04;3.78;;;1.88;;
74344;SDS011;62776;50.518;6.732;2023-11-19T07:07:57;2.95;;;1.23;;
74344;SDS011;62776;50.518;6.732;2023-11-19T07:10:48;3.30;;;2.05;;
74344;SDS011;62776;50.518;6.732;2023-11-19T07:13:34;3.53;;;1.55;;
74344;SDS011;62776;50.518;6.732;2023-11-19T07:16:23;3.55;;;2.10;;
74344;SDS011;62776;50.518;6.732;2023-11-19T07:19:10;4.88;;;1.80;;
74344;SDS011;62776;50.518;6.732;2023-11-19T07:21:57;3.83;;;2.53;;
74344;SDS011;62776;50.518;6.732;2023-11-19T07:24:47;3.35;;;2.15;;
74344;SDS011;62776;50.518;6.732;2023-11-19T07:27:34;5.63;;;2.20;;
74344;SDS011;62776;50.518;6.732;2023-11-19T07:30:24;4.63;;;2.22;;
74344;SDS011;62776;50.518;6.732;2023-11-19T07:33:13;6.75;;;2.20;;
74344;SDS011;62776;50.518;6.732;2023-11-19T07:36:03;4.38;;;1.90;;
74344;SDS011;62776;50.518;6.732;2023-11-19T07:38:53;3.17;;;1.80;;
74344;SDS011;62776;50.518;6.732;2023-11-19T07:41:45;4.97;;;2.10;;
74344;SDS011;62776;50.518;6.732;2023-11-19T07:44:32;4.22;;;2.13;;
74344;SDS011;62776;50.518;6.732;2023-11-19T07:47:21;8.45;;;1.92;;
74344;SDS011;62776;50.518;6.732;2023-11-19T07:50:08;5.03;;;2.20;;
74344;SDS011;62776;50.518;6.732;2023-11-19T07:53:01;3.47;;;2.17;;
74344;SDS011;62776;50.518;6.732;2023-11-19T07:55:49;3.75;;;1.80;;
74344;SDS011;62776;50.518;6.732;2023-11-19T07:58:36;4.22;;;2.13;;
74344;SDS011;62776;50.518;6.732;2023-11-19T08:01:23;5.70;;;1.95;;
74344;SDS011;62776;50.518;6.732;2023-11-19T08:04:10;4.93;;;2.55;;
74344;SDS011;62776;50.518;6.732;2023-11-19T08:06:56;9.35;;;3.90;;
74344;SDS011;62776;50.518;6.732;2023-11-19T08:09:46;4.63;;;2.17;;
74344;SDS011;62776;50.518;6.732;2023-11-19T08:12:36;5.97;;;2.90;;
74344;SDS011;62776;50.518;6.732;2023-11-19T08:15:22;4.97;;;2.22;;
74344;SDS011;62776;50.518;6.732;2023-11-19T08:18:09;7.22;;;2.65;;
74344;SDS011;62776;50.518;6.732;2023-11-19T08:20:56;4.35;;;2.17;;
74344;SDS011;62776;50.518;6.732;2023-11-19T08:23:44;4.20;;;2.10;;
74344;SDS011;62776;50.518;6.732;2023-11-19T08:26:30;4.00;;;2.22;;
74344;SDS011;62776;50.518;6.732;2023-11-19T08:29:17;2.75;;;1.75;;
74344;SDS011;62776;50.518;6.732;2023-11-19T08:32:04;5.18;;;2.90;;
74344;SDS011;62776;50.518;6.732;2023-11-19T08:34:52;5.57;;;2.60;;
74344;SDS011;62776;50.518;6.732;2023-11-19T08:37:38;10.40;;;3.80;;
74344;SDS011;62776;50.518;6.732;2023-11-19T08:40:27;5.85;;;2.45;;
74344;SDS011;62776;50.518;6.732;2023-11-19T08:43:17;5.28;;;2.08;;
74344;SDS011;62776;50.518;6.732;2023-11-19T08:46:09;6.38;;;2.28;;
74344;SDS011;62776;50.518;6.732;2023-11-19T08:48:56;5.63;;;1.90;;
74344;SDS011;62776;50.518;6.732;2023-11-19T08:51:46;5.70;;;2.08;;
74344;SDS011;62776;50.518;6.732;2023-11-19T08:54:33;5.28;;;2.83;;
74344;SDS011;62776;50.518;6.732;2023-11-19T08:57:22;3.85;;;2.13;;
74344;SDS011;62776;50.518;6.732;2023-11-19T09:00:13;4.25;;;2.53;;
74344;SDS011;62776;50.518;6.732;2023-11-19T09:02:59;2.95;;;1.70;;
74344;SDS011;62776;50.518;6.732;2023-11-19T09:05:49;7.90;;;3.05;;
74344;SDS011;62776;50.518;6.732;2023-11-19T09:08:39;5.50;;;2.55;;
74344;SDS011;62776;50.518;6.732;2023-11-19T09:11:28;6.95;;;2.30;;
74344;SDS011;62776;50.518;6.732;2023-11-19T09:14:16;8.77;;;2.63;;
74344;SDS011;62776;50.518;6.732;2023-11-19T09:17:10;8.73;;;3.03;;
74344;SDS011;62776;50.518;6.732;2023-11-19T09:19:57;3.90;;;2.17;;
74344;SDS011;62776;50.518;6.732;2023-11-19T09:22:47;4.53;;;2.33;;
74344;SDS011;62776;50.518;6.732;2023-11-19T09:25:33;6.75;;;3.25;;
74344;SDS011;62776;50.518;6.732;2023-11-19T09:28:23;4.63;;;2.47;;
74344;SDS011;62776;50.518;6.732;2023-11-19T09:31:15;3.80;;;1.98;;
74344;SDS011;62776;50.518;6.732;2023-11-19T09:34:07;4.20;;;1.83;;
74344;SDS011;62776;50.518;6.732;2023-11-19T09:36:54;7.55;;;2.95;;
74344;SDS011;62776;50.518;6.732;2023-11-19T09:39:43;7.97;;;3.63;;
74344;SDS011;62776;50.518;6.732;2023-11-19T09:42:39;6.27;;;2.67;;
74344;SDS011;62776;50.518;6.732;2023-11-19T09:45:32;7.15;;;3.38;;
74344;SDS011;62776;50.518;6.732;2023-11-19T09:51:35;5.85;;;2.38;;
74344;SDS011;62776;50.518;6.732;2023-11-19T09:54:26;4.30;;;2.35;;
74344;SDS011;62776;50.518;6.732;2023-11-19T09:57:20;5.10;;;3.00;;
74344;SDS011;62776;50.518;6.732;2023-11-19T10:00:09;5.15;;;2.65;;
74344;SDS011;62776;50.518;6.732;2023-11-19T10:03:04;7.20;;;2.58;;
74344;SDS011;62776;50.518;6.732;2023-11-19T10:05:54;5.15;;;2.55;;
74344;SDS011;62776;50.518;6.732;2023-11-19T10:08:42;8.20;;;3.33;;
74344;SDS011;62776;50.518;6.732;2023-11-19T10:11:28;6.03;;;2.65;;
74344;SDS011;62776;50.518;6.732;2023-11-19T10:14:22;3.28;;;1.95;;
74344;SDS011;62776;50.518;6.732;2023-11-19T10:17:09;3.30;;;1.92;;
74344;SDS011;62776;50.518;6.732;2023-11-19T10:19:59;3.95;;;1.70;;
74344;SDS011;62776;50.518;6.732;2023-11-19T10:22:55;4.45;;;2.95;;
74344;SDS011;62776;50.518;6.732;2023-11-19T10:25:43;5.70;;;2.17;;
74344;SDS011;62776;50.518;6.732;2023-11-19T10:28:35;5.00;;;2.40;;
74344;SDS011;62776;50.518;6.732;2023-11-19T10:31:28;3.38;;;2.33;;
74344;SDS011;62776;50.518;6.732;2023-11-19T10:34:25;3.30;;;2.30;;
74344;SDS011;62776;50.518;6.732;2023-11-19T10:37:45;5.18;;;2.35;;
74344;SDS011;62776;50.518;6.732;2023-11-19T10:40:37;5.78;;;3.03;;
74344;SDS011;62776;50.518;6.732;2023-11-19T10:43:42;4.10;;;2.10;;
74344;SDS011;62776;50.518;6.732;2023-11-19T10:46:41;4.18;;;2.53;;
74344;SDS011;62776;50.518;6.732;2023-11-19T10:49:31;3.65;;;1.55;;
74344;SDS011;62776;50.518;6.732;2023-11-19T10:52:24;3.20;;;1.92;;
74344;SDS011;62776;50.518;6.732;2023-11-19T10:55:12;2.20;;;1.88;;
74344;SDS011;62776;50.518;6.732;2023-11-19T11:02:00;5.35;;;2.28;;
74344;SDS011;62776;50.518;6.732;2023-11-19T11:04:52;4.60;;;1.95;;
74344;SDS011;62776;50.518;6.732;2023-11-19T11:07:51;5.43;;;2.88;;
74344;SDS011;62776;50.518;6.732;2023-11-19T11:10:46;5.18;;;2.42;;
74344;SDS011;62776;50.518;6.732;2023-11-19T11:13:47;5.57;;;2.20;;
74344;SDS011;62776;50.518;6.732;2023-11-19T11:16:35;2.92;;;1.88;;
74344;SDS011;62776;50.518;6.732;2023-11-19T11:19:27;4.90;;;2.20;;
74344;SDS011;62776;50.518;6.732;2023-11-19T11:22:14;6.40;;;2.80;;
74344;SDS011;62776;50.518;6.732;2023-11-19T11:28:35;4.28;;;1.98;;
74344;SDS011;62776;50.518;6.732;2023-11-19T11:37:46;3.50;;;1.95;;
74344;SDS011;62776;50.518;6.732;2023-11-19T11:40:35;3.40;;;2.22;;
74344;SDS011;62776;50.518;6.732;2023-11-19T11:49:26;2.70;;;1.60;;
74344;SDS011;62776;50.518;6.732;2023-11-19T11:52:14;5.15;;;2.17;;
74344;SDS011;62776;50.518;6.732;2023-11-19T11:55:04;5.03;;;1.83;;
74344;SDS011;62776;50.518;6.732;2023-11-19T11:57:54;3.47;;;2.22;;
74344;SDS011;62776;50.518;6.732;2023-11-19T12:00:41;5.07;;;1.83;;
74344;SDS011;62776;50.518;6.732;2023-11-19T12:03:32;2.63;;;1.55;;
74344;SDS011;62776;50.518;6.732;2023-11-19T12:06:20;3.80;;;1.90;;
74344;SDS011;62776;50.518;6.732;2023-11-19T12:09:07;5.15;;;2.65;;
74344;SDS011;62776;50.518;6.732;2023-11-19T12:12:06;3.58;;;1.83;;
74344;SDS011;62776;50.518;6.732;2023-11-19T12:15:03;5.32;;;2.45;;
74344;SDS011;62776;50.518;6.732;2023-11-19T12:17:57;4.20;;;2.28;;
74344;SDS011;62776;50.518;6.732;2023-11-19T12:20:44;3.10;;;1.67;;
74344;SDS011;62776;50.518;6.732;2023-11-19T12:23:31;5.65;;;2.47;;
74344;SDS011;62776;50.518;6.732;2023-11-19T12:26:30;5.72;;;1.90;;
74344;SDS011;62776;50.518;6.732;2023-11-19T12:29:20;2.42;;;1.75;;
74344;SDS011;62776;50.518;6.732;2023-11-19T12:32:07;5.75;;;2.50;;
74344;SDS011;62776;50.518;6.732;2023-11-19T12:34:54;3.63;;;1.90;;
74344;SDS011;62776;50.518;6.732;2023-11-19T12:37:45;4.47;;;2.40;;
74344;SDS011;62776;50.518;6.732;2023-11-19T12:40:32;2.72;;;1.50;;
74344;SDS011;62776;50.518;6.732;2023-11-19T12:43:22;2.92;;;1.75;;
74344;SDS011;62776;50.518;6.732;2023-11-19T12:46:21;4.55;;;1.33;;
74344;SDS011;62776;50.518;6.732;2023-11-19T12:49:08;4.97;;;2.58;;
74344;SDS011;62776;50.518;6.732;2023-11-19T12:51:57;3.00;;;1.65;;
74344;SDS011;62776;50.518;6.732;2023-11-19T12:54:45;4.18;;;2.13;;
74344;SDS011;62776;50.518;6.732;2023-11-19T12:57:39;4.07;;;2.05;;
74344;SDS011;62776;50.518;6.732;2023-11-19T13:00:27;6.70;;;2.85;;
74344;SDS011;62776;50.518;6.732;2023-11-19T13:03:25;3.90;;;2.10;;
74344;SDS011;62776;50.518;6.732;2023-11-19T13:06:16;3.17;;;1.45;;
74344;SDS011;62776;50.518;6.732;2023-11-19T13:09:21;3.88;;;2.17;;
74344;SDS011;62776;50.518;6.732;2023-11-19T13:12:13;3.45;;;1.92;;
74344;SDS011;62776;50.518;6.732;2023-11-19T13:15:00;3.83;;;2.53;;
74344;SDS011;62776;50.518;6.732;2023-11-19T13:17:47;4.85;;;1.80;;
74344;SDS011;62776;50.518;6.732;2023-11-19T13:20:37;2.83;;;1.88;;
74344;SDS011;62776;50.518;6.732;2023-11-19T13:23:27;4.15;;;2.03;;
74344;SDS011;62776;50.518;6.732;2023-11-19T13:26:13;5.03;;;2.65;;
74344;SDS011;62776;50.518;6.732;2023-11-19T13:29:00;4.28;;;2.53;;
74344;SDS011;62776;50.518;6.732;2023-11-19T13:31:47;5.45;;;2.50;;
74344;SDS011;62776;50.518;6.732;2023-11-19T13:34:34;5.20;;;2.33;;
74344;SDS011;62776;50.518;6.732;2023-11-19T13:37:21;2.80;;;1.75;;
74344;SDS011;62776;50.518;6.732;2023-11-19T13:40:12;3.22;;;1.70;;
74344;SDS011;62776;50.518;6.732;2023-11-19T13:43:00;4.50;;;2.20;;
74344;SDS011;62776;50.518;6.732;2023-11-19T13:45:46;4.25;;;1.83;;
74344;SDS011;62776;50.518;6.732;2023-11-19T13:48:33;4.40;;;2.47;;
74344;SDS011;62776;50.518;6.732;2023-11-19T13:51:23;4.40;;;2.72;;
74344;SDS011;62776;50.518;6.732;2023-11-19T13:54:09;4.13;;;2.33;;
74344;SDS011;62776;50.518;6.732;2023-11-19T13:56:58;5.22;;;2.38;;
74344;SDS011;62776;50.518;6.732;2023-11-19T13:59:45;2.63;;;1.73;;
74344;SDS011;62776;50.518;6.732;2023-11-19T14:02:32;3.47;;;2.22;;
74344;SDS011;62776;50.518;6.732;2023-11-19T14:05:22;2.72;;;1.50;;
74344;SDS011;62776;50.518;6.732;2023-11-19T14:08:08;4.63;;;2.78;;
74344;SDS011;62776;50.518;6.732;2023-11-19T14:10:57;3.00;;;1.90;;
74344;SDS011;62776;50.518;6.732;2023-11-19T14:13:44;3.65;;;1.60;;
74344;SDS011;62776;50.518;6.732;2023-11-19T14:16:31;4.25;;;1.80;;
74344;SDS011;62776;50.518;6.732;2023-11-19T14:19:19;4.53;;;2.42;;
74344;SDS011;62776;50.518;6.732;2023-11-19T14:22:06;4.60;;;2.38;;
74344;SDS011;62776;50.518;6.732;2023-11-19T14:24:53;3.88;;;2.03;;
74344;SDS011;62776;50.518;6.732;2023-11-19T14:27:40;4.72;;;2.10;;
74344;SDS011;62776;50.518;6.732;2023-11-19T14:30:28;4.60;;;1.70;;
74344;SDS011;62776;50.518;6.732;2023-11-19T14:33:17;2.90;;;1.52;;
74344;SDS011;62776;50.518;6.732;2023-11-19T14:36:03;3.13;;;1.75;;
74344;SDS011;62776;50.518;6.732;2023-11-19T14:38:52;4.97;;;2.35;;
74344;SDS011;62776;50.518;6.732;2023-11-19T14:41:38;4.13;;;2.60;;
74344;SDS011;62776;50.518;6.732;2023-11-19T14:44:25;4.40;;;2.15;;
74344;SDS011;62776;50.518;6.732;2023-11-19T14:47:12;3.60;;;1.63;;
74344;SDS011;62776;50.518;6.732;2023-11-19T14:49:59;3.47;;;1.83;;
74344;SDS011;62776;50.518;6.732;2023-11-19T14:52:45;2.90;;;1.38;;
74344;SDS011;62776;50.518;6.732;2023-11-19T14:55:37;4.57;;;1.85;;
74344;SDS011;62776;50.518;6.732;2023-11-19T14:58:26;3.77;;;2.03;;
74344;SDS011;62776;50.518;6.732;2023-11-19T15:01:13;4.43;;;2.15;;
74344;SDS011;62776;50.518;6.732;2023-11-19T15:04:00;4.15;;;1.83;;
74344;SDS011;62776;50.518;6.732;2023-11-19T15:06:46;8.63;;;2.15;;
74344;SDS011;62776;50.518;6.732;2023-11-19T15:09:33;3.53;;;2.50;;
74344;SDS011;62776;50.518;6.732;2023-11-19T15:12:21;3.55;;;2.53;;
74344;SDS011;62776;50.518;6.732;2023-11-19T15:15:13;3.00;;;1.45;;
74344;SDS011;62776;50.518;6.732;2023-11-19T15:18:00;4.88;;;2.20;;
74344;SDS011;62776;50.518;6.732;2023-11-19T15:20:47;4.80;;;1.80;;
74344;SDS011;62776;50.518;6.732;2023-11-19T15:23:36;5.25;;;2.05;;
74344;SDS011;62776;50.518;6.732;2023-11-19T15:26:23;3.85;;;2.25;;
74344;SDS011;62776;50.518;6.732;2023-11-19T15:29:09;3.88;;;1.73;;
74344;SDS011;62776;50.518;6.732;2023-11-19T15:31:56;4.75;;;2.40;;
74344;SDS011;62776;50.518;6.732;2023-11-19T15:34:42;3.45;;;2.30;;
74344;SDS011;62776;50.518;6.732;2023-11-19T15:37:29;4.82;;;2.53;;
74344;SDS011;62776;50.518;6.732;2023-11-19T15:40:17;3.63;;;2.00;;
74344;SDS011;62776;50.518;6.732;2023-11-19T15:43:05;4.85;;;2.65;;
74344;SDS011;62776;50.518;6.732;2023-11-19T15:45:51;4.88;;;2.40;;
74344;SDS011;62776;50.518;6.732;2023-11-19T15:48:38;4.53;;;2.38;;
74344;SDS011;62776;50.518;6.732;2023-11-19T15:51:30;5.28;;;2.40;;
74344;SDS011;62776;50.518;6.732;2023-11-19T15:54:17;3.97;;;2.03;;
74344;SDS011;62776;50.518;6.732;2023-11-19T15:57:04;4.85;;;2.92;;
74344;SDS011;62776;50.518;6.732;2023-11-19T15:59:54;2.72;;;1.92;;
74344;SDS011;62776;50.518;6.732;2023-11-19T16:02:43;4.03;;;2.03;;
74344;SDS011;62776;50.518;6.732;2023-11-19T16:05:30;2.58;;;1.80;;
74344;SDS011;62776;50.518;6.732;2023-11-19T16:08:16;4.68;;;2.20;;
74344;SDS011;62776;50.518;6.732;2023-11-19T16:11:03;4.38;;;2.35;;
74344;SDS011;62776;50.518;6.732;2023-11-19T16:13:50;7.72;;;2.45;;
74344;SDS011;62776;50.518;6.732;2023-11-19T16:16:36;3.88;;;1.98;;
74344;SDS011;62776;50.518;6.732;2023-11-19T16:19:23;3.47;;;2.03;;
74344;SDS011;62776;50.518;6.732;2023-11-19T16:22:13;4.20;;;2.45;;
74344;SDS011;62776;50.518;6.732;2023-11-19T16:24:59;3.35;;;2.17;;
74344;SDS011;62776;50.518;6.732;2023-11-19T16:27:46;5.30;;;2.15;;
74344;SDS011;62776;50.518;6.732;2023-11-19T16:30:33;5.05;;;2.17;;
74344;SDS011;62776;50.518;6.732;2023-11-19T16:33:19;6.13;;;1.73;;
74344;SDS011;62776;50.518;6.732;2023-11-19T16:36:06;4.55;;;2.17;;
74344;SDS011;62776;50.518;6.732;2023-11-19T16:38:57;3.83;;;1.98;;
74344;SDS011;62776;50.518;6.732;2023-11-19T16:41:44;3.58;;;1.63;;
74344;SDS011;62776;50.518;6.732;2023-11-19T16:44:30;6.78;;;2.63;;
74344;SDS011;62776;50.518;6.732;2023-11-19T16:47:17;4.40;;;2.60;;
74344;SDS011;62776;50.518;6.732;2023-11-19T16:50:04;3.47;;;1.80;;
74344;SDS011;62776;50.518;6.732;2023-11-19T16:52:50;3.63;;;2.15;;
74344;SDS011;62776;50.518;6.732;2023-11-19T16:55:40;6.13;;;2.55;;
74344;SDS011;62776;50.518;6.732;2023-11-19T16:58:26;3.20;;;1.80;;
74344;SDS011;62776;50.518;6.732;2023-11-19T17:01:13;5.40;;;2.63;;
74344;SDS011;62776;50.518;6.732;2023-11-19T17:04:00;4.57;;;2.42;;
74344;SDS011;62776;50.518;6.732;2023-11-19T17:06:47;3.53;;;1.88;;
74344;SDS011;62776;50.518;6.732;2023-11-19T17:09:36;3.72;;;1.77;;
74344;SDS011;62776;50.518;6.732;2023-11-19T17:12:29;7.72;;;2.88;;
74344;SDS011;62776;50.518;6.732;2023-11-19T17:15:16;7.05;;;2.65;;
74344;SDS011;62776;50.518;6.732;2023-11-19T17:18:03;3.55;;;2.25;;
74344;SDS011;62776;50.518;6.732;2023-11-19T17:20:50;4.57;;;2.30;;
74344;SDS011;62776;50.518;6.732;2023-11-19T17:23:37;4.72;;;2.45;;